sensor_id;sensor_type;location;lat;lon;timestamp;pressure;altitude;pressure_sealevel;temperature
64904;BMP280;51401;48.882;12.598;2024-03-23T00:56:05;64146.03;;;-137.53
64904;BMP280;51401;48.882;12.598;2024-03-23T00:58:30;64148.03;;;-137.53
64904;BMP280;51401;48.882;12.598;2024-03-23T01:00:56;64148.03;;;-137.53
64904;BMP280;51401;48.882;12.598;2024-03-23T01:03:21;64148.03;;;-137.53
64904;BMP280;51401;48.882;12.598;2024-03-23T01:05:47;64148.03;;;-137.53
64904;BMP280;51401;48.882;12.598;2024-03-23T01:08:13;64148.03;;;-137.53
64904;BMP280;51401;48.882;12.598;2024-03-23T01:10:39;64148.03;;;-137.53
64904;BMP280;51401;48.882;12.598;2024-03-23T01:13:04;64148.03;;;-137.53
64904;BMP280;51401;48.882;12.598;2024-03-23T01:15:29;64152.00;;;-137.53
64904;BMP280;51401;48.882;12.598;2024-03-23T01:17:54;64146.03;;;-137.53
64904;BMP280;51401;48.882;12.598;2024-03-23T01:20:20;64152.00;;;-137.53
64904;BMP280;51401;48.882;12.598;2024-03-23T01:22:45;64150.03;;;-137.53
64904;BMP280;51401;48.882;12.598;2024-03-23T01:25:10;64148.03;;;-137.53
64904;BMP280;51401;48.882;12.598;2024-03-23T01:27:35;64150.03;;;-137.53
64904;BMP280;51401;48.882;12.598;2024-03-23T01:30:01;64148.03;;;-137.53
64904;BMP280;51401;48.882;12.598;2024-03-23T01:32:29;64148.03;;;-137.53
64904;BMP280;51401;48.882;12.598;2024-03-23T01:34:54;64152.00;;;-137.53
64904;BMP280;51401;48.882;12.598;2024-03-23T01:37:22;64148.03;;;-137.53
64904;BMP280;51401;48.882;12.598;2024-03-23T01:39:48;64152.00;;;-137.53
64904;BMP280;51401;48.882;12.598;2024-03-23T01:42:13;64150.03;;;-137.53
64904;BMP280;51401;48.882;12.598;2024-03-23T01:44:38;64150.03;;;-137.53
64904;BMP280;51401;48.882;12.598;2024-03-23T01:47:04;64152.00;;;-137.53
64904;BMP280;51401;48.882;12.598;2024-03-23T01:49:30;64148.03;;;-137.53
64904;BMP280;51401;48.882;12.598;2024-03-23T01:51:56;64152.00;;;-137.53
64904;BMP280;51401;48.882;12.598;2024-03-23T01:54:22;64152.00;;;-137.53
64904;BMP280;51401;48.882;12.598;2024-03-23T01:56:48;64150.03;;;-137.53
64904;BMP280;51401;48.882;12.598;2024-03-23T01:59:14;64152.00;;;-137.53
64904;BMP280;51401;48.882;12.598;2024-03-23T02:01:39;64152.00;;;-137.53
64904;BMP280;51401;48.882;12.598;2024-03-23T02:04:04;64152.00;;;-137.53
64904;BMP280;51401;48.882;12.598;2024-03-23T02:06:30;64152.00;;;-137.53
64904;BMP280;51401;48.882;12.598;2024-03-23T02:08:55;64150.03;;;-137.53
64904;BMP280;51401;48.882;12.598;2024-03-23T02:11:21;64152.00;;;-137.53
64904;BMP280;51401;48.882;12.598;2024-03-23T02:13:47;64148.03;;;-137.53
64904;BMP280;51401;48.882;12.598;2024-03-23T02:16:12;64152.00;;;-137.53
64904;BMP280;51401;48.882;12.598;2024-03-23T02:18:38;64148.03;;;-137.53
64904;BMP280;51401;48.882;12.598;2024-03-23T02:21:03;64148.03;;;-137.53
64904;BMP280;51401;48.882;12.598;2024-03-23T02:23:29;64152.00;;;-137.53
64904;BMP280;51401;48.882;12.598;2024-03-23T02:25:55;64148.03;;;-137.53
64904;BMP280;51401;48.882;12.598;2024-03-23T02:28:20;64150.03;;;-137.53
64904;BMP280;51401;48.882;12.598;2024-03-23T02:30:47;64152.00;;;-137.53
64904;BMP280;51401;48.882;12.598;2024-03-23T02:33:12;64152.00;;;-137.53
64904;BMP280;51401;48.882;12.598;2024-03-23T02:35:38;64152.00;;;-137.53
64904;BMP280;51401;48.882;12.598;2024-03-23T02:38:03;64150.03;;;-137.53
64904;BMP280;51401;48.882;12.598;2024-03-23T02:40:29;64150.03;;;-137.53
64904;BMP280;51401;48.882;12.598;2024-03-23T02:42:55;64154.00;;;-137.53
64904;BMP280;51401;48.882;12.598;2024-03-23T02:45:20;64152.00;;;-137.53
64904;BMP280;51401;48.882;12.598;2024-03-23T02:47:45;64150.03;;;-137.53
64904;BMP280;51401;48.882;12.598;2024-03-23T02:50:11;64152.00;;;-137.53
64904;BMP280;51401;48.882;12.598;2024-03-23T02:52:36;64152.00;;;-137.53
64904;BMP280;51401;48.882;12.598;2024-03-23T02:55:02;64154.00;;;-137.53
64904;BMP280;51401;48.882;12.598;2024-03-23T02:57:28;64152.00;;;-137.53
64904;BMP280;51401;48.882;12.598;2024-03-23T02:59:53;64152.00;;;-137.53
64904;BMP280;51401;48.882;12.598;2024-03-23T03:02:19;64152.00;;;-137.53
64904;BMP280;51401;48.882;12.598;2024-03-23T03:04:45;64154.00;;;-137.53
64904;BMP280;51401;48.882;12.598;2024-03-23T03:07:10;64152.00;;;-137.53
64904;BMP280;51401;48.882;12.598;2024-03-23T03:09:35;64155.97;;;-137.53
64904;BMP280;51401;48.882;12.598;2024-03-23T03:12:01;64152.00;;;-137.53
64904;BMP280;51401;48.882;12.598;2024-03-23T03:14:27;64152.00;;;-137.53
64904;BMP280;51401;48.882;12.598;2024-03-23T03:16:53;64152.00;;;-137.53
64904;BMP280;51401;48.882;12.598;2024-03-23T03:19:18;64152.00;;;-137.53
64904;BMP280;51401;48.882;12.598;2024-03-23T03:21:44;64154.00;;;-137.53
64904;BMP280;51401;48.882;12.598;2024-03-23T03:24:09;64152.00;;;-137.53
64904;BMP280;51401;48.882;12.598;2024-03-23T03:26:34;64152.00;;;-137.53
64904;BMP280;51401;48.882;12.598;2024-03-23T03:28:59;64150.03;;;-137.53
64904;BMP280;51401;48.882;12.598;2024-03-23T03:31:25;64152.00;;;-137.53
64904;BMP280;51401;48.882;12.598;2024-03-23T03:33:51;64152.00;;;-137.53
64904;BMP280;51401;48.882;12.598;2024-03-23T03:36:16;64154.00;;;-137.53
64904;BMP280;51401;48.882;12.598;2024-03-23T03:38:41;64155.97;;;-137.53
64904;BMP280;51401;48.882;12.598;2024-03-23T03:41:07;64152.00;;;-137.53
64904;BMP280;51401;48.882;12.598;2024-03-23T03:43:32;64155.97;;;-137.53
64904;BMP280;51401;48.882;12.598;2024-03-23T03:45:59;64154.00;;;-137.53
64904;BMP280;51401;48.882;12.598;2024-03-23T03:48:25;64154.00;;;-137.53
64904;BMP280;51401;48.882;12.598;2024-03-23T03:50:50;64152.00;;;-137.53
64904;BMP280;51401;48.882;12.598;2024-03-23T03:53:15;64152.00;;;-137.53
64904;BMP280;51401;48.882;12.598;2024-03-23T03:55:41;64152.00;;;-137.53
64904;BMP280;51401;48.882;12.598;2024-03-23T03:58:06;64152.00;;;-137.53
64904;BMP280;51401;48.882;12.598;2024-03-23T04:00:31;64154.00;;;-137.53
64904;BMP280;51401;48.882;12.598;2024-03-23T04:02:57;64152.00;;;-137.53
64904;BMP280;51401;48.882;12.598;2024-03-23T04:05:23;64154.00;;;-137.53
64904;BMP280;51401;48.882;12.598;2024-03-23T04:07:48;64154.00;;;-137.53
64904;BMP280;51401;48.882;12.598;2024-03-23T04:10:14;64154.00;;;-137.53
64904;BMP280;51401;48.882;12.598;2024-03-23T04:12:43;64154.00;;;-137.53
64904;BMP280;51401;48.882;12.598;2024-03-23T04:15:08;64154.00;;;-137.53
64904;BMP280;51401;48.882;12.598;2024-03-23T04:17:34;64154.00;;;-137.53
64904;BMP280;51401;48.882;12.598;2024-03-23T04:20:00;64152.00;;;-137.53
64904;BMP280;51401;48.882;12.598;2024-03-23T04:22:26;64154.00;;;-137.53
64904;BMP280;51401;48.882;12.598;2024-03-23T04:24:55;64154.00;;;-137.53
64904;BMP280;51401;48.882;12.598;2024-03-23T04:27:21;64150.03;;;-137.53
64904;BMP280;51401;48.882;12.598;2024-03-23T04:29:48;64152.00;;;-137.53
64904;BMP280;51401;48.882;12.598;2024-03-23T04:32:14;64154.00;;;-137.53
64904;BMP280;51401;48.882;12.598;2024-03-23T04:34:39;64154.00;;;-137.53
64904;BMP280;51401;48.882;12.598;2024-03-23T04:37:05;64154.00;;;-137.53
64904;BMP280;51401;48.882;12.598;2024-03-23T04:39:30;64154.00;;;-137.53
64904;BMP280;51401;48.882;12.598;2024-03-23T04:41:55;64152.00;;;-137.53
64904;BMP280;51401;48.882;12.598;2024-03-23T04:44:21;64155.97;;;-137.53
64904;BMP280;51401;48.882;12.598;2024-03-23T04:46:46;64152.00;;;-137.53
64904;BMP280;51401;48.882;12.598;2024-03-23T04:49:11;64152.00;;;-137.53
64904;BMP280;51401;48.882;12.598;2024-03-23T04:51:37;64152.00;;;-137.53
64904;BMP280;51401;48.882;12.598;2024-03-23T04:54:10;64150.03;;;-137.53
64904;BMP280;51401;48.882;12.598;2024-03-23T04:56:36;64150.03;;;-137.53
64904;BMP280;51401;48.882;12.598;2024-03-23T04:59:01;64148.03;;;-137.53
64904;BMP280;51401;48.882;12.598;2024-03-23T05:01:29;64152.00;;;-137.53
64904;BMP280;51401;48.882;12.598;2024-03-23T05:03:56;64152.00;;;-137.53
64904;BMP280;51401;48.882;12.598;2024-03-23T05:06:22;64155.97;;;-137.53
64904;BMP280;51401;48.882;12.598;2024-03-23T05:08:47;64152.00;;;-137.53
64904;BMP280;51401;48.882;12.598;2024-03-23T05:11:12;64148.03;;;-137.53
64904;BMP280;51401;48.882;12.598;2024-03-23T05:13:38;64152.00;;;-137.53
64904;BMP280;51401;48.882;12.598;2024-03-23T05:16:03;64150.03;;;-137.53
64904;BMP280;51401;48.882;12.598;2024-03-23T05:18:29;64150.03;;;-137.53
64904;BMP280;51401;48.882;12.598;2024-03-23T05:20:58;64150.03;;;-137.53
64904;BMP280;51401;48.882;12.598;2024-03-23T05:23:24;64150.03;;;-137.53
64904;BMP280;51401;48.882;12.598;2024-03-23T05:25:50;64150.03;;;-137.53
64904;BMP280;51401;48.882;12.598;2024-03-23T05:28:16;64150.03;;;-137.53
64904;BMP280;51401;48.882;12.598;2024-03-23T05:30:42;64148.03;;;-137.53
64904;BMP280;51401;48.882;12.598;2024-03-23T05:33:07;64152.00;;;-137.53
64904;BMP280;51401;48.882;12.598;2024-03-23T05:35:32;64152.00;;;-137.53
64904;BMP280;51401;48.882;12.598;2024-03-23T05:37:58;64148.03;;;-137.53
64904;BMP280;51401;48.882;12.598;2024-03-23T05:40:25;64152.00;;;-137.53
64904;BMP280;51401;48.882;12.598;2024-03-23T05:42:50;64152.00;;;-137.53
64904;BMP280;51401;48.882;12.598;2024-03-23T05:45:18;64150.03;;;-137.53
64904;BMP280;51401;48.882;12.598;2024-03-23T05:47:43;64150.03;;;-137.53
64904;BMP280;51401;48.882;12.598;2024-03-23T05:50:10;64150.03;;;-137.53
64904;BMP280;51401;48.882;12.598;2024-03-23T05:52:38;64150.03;;;-137.53
64904;BMP280;51401;48.882;12.598;2024-03-23T05:55:03;64150.03;;;-137.53
64904;BMP280;51401;48.882;12.598;2024-03-23T05:57:29;64152.00;;;-137.53
64904;BMP280;51401;48.882;12.598;2024-03-23T05:59:54;64152.00;;;-137.53
64904;BMP280;51401;48.882;12.598;2024-03-23T06:02:19;64148.03;;;-137.53
64904;BMP280;51401;48.882;12.598;2024-03-23T06:04:45;64148.03;;;-137.53
64904;BMP280;51401;48.882;12.598;2024-03-23T06:07:11;64152.00;;;-137.53
64904;BMP280;51401;48.882;12.598;2024-03-23T06:09:39;64150.03;;;-137.53
64904;BMP280;51401;48.882;12.598;2024-03-23T06:12:04;64148.03;;;-137.53
64904;BMP280;51401;48.882;12.598;2024-03-23T06:14:30;64150.03;;;-137.53
64904;BMP280;51401;48.882;12.598;2024-03-23T06:16:55;64148.03;;;-137.53
64904;BMP280;51401;48.882;12.598;2024-03-23T06:19:20;64148.03;;;-137.53
64904;BMP280;51401;48.882;12.598;2024-03-23T06:21:45;64150.03;;;-137.53
64904;BMP280;51401;48.882;12.598;2024-03-23T06:24:11;64150.03;;;-137.53
64904;BMP280;51401;48.882;12.598;2024-03-23T06:26:37;64148.03;;;-137.53
64904;BMP280;51401;48.882;12.598;2024-03-23T06:29:02;64148.03;;;-137.53
64904;BMP280;51401;48.882;12.598;2024-03-23T06:31:28;64148.03;;;-137.53
64904;BMP280;51401;48.882;12.598;2024-03-23T06:33:55;64146.03;;;-137.53
64904;BMP280;51401;48.882;12.598;2024-03-23T06:36:20;64148.03;;;-137.53
64904;BMP280;51401;48.882;12.598;2024-03-23T06:38:45;64146.03;;;-137.53
64904;BMP280;51401;48.882;12.598;2024-03-23T06:41:10;64146.03;;;-137.53
64904;BMP280;51401;48.882;12.598;2024-03-23T06:43:36;64148.03;;;-137.53
64904;BMP280;51401;48.882;12.598;2024-03-23T06:46:03;64144.06;;;-137.53
64904;BMP280;51401;48.882;12.598;2024-03-23T06:48:29;64144.06;;;-137.53
64904;BMP280;51401;48.882;12.598;2024-03-23T06:50:57;64144.06;;;-137.53
64904;BMP280;51401;48.882;12.598;2024-03-23T06:53:23;64144.06;;;-137.53
64904;BMP280;51401;48.882;12.598;2024-03-23T06:55:52;64144.06;;;-137.53
64904;BMP280;51401;48.882;12.598;2024-03-23T06:58:19;64140.09;;;-137.53
64904;BMP280;51401;48.882;12.598;2024-03-23T07:00:45;64140.09;;;-137.53
64904;BMP280;51401;48.882;12.598;2024-03-23T07:03:10;64138.09;;;-137.53
64904;BMP280;51401;48.882;12.598;2024-03-23T07:05:36;64140.09;;;-137.53
64904;BMP280;51401;48.882;12.598;2024-03-23T07:08:01;64136.13;;;-137.53
64904;BMP280;51401;48.882;12.598;2024-03-23T07:10:26;64136.13;;;-137.53
64904;BMP280;51401;48.882;12.598;2024-03-23T07:12:51;64138.09;;;-137.53
64904;BMP280;51401;48.882;12.598;2024-03-23T07:15:17;64134.13;;;-137.53
64904;BMP280;51401;48.882;12.598;2024-03-23T07:17:42;64136.13;;;-137.53
64904;BMP280;51401;48.882;12.598;2024-03-23T07:20:07;64138.09;;;-137.53
64904;BMP280;51401;48.882;12.598;2024-03-23T07:22:35;64138.09;;;-137.53
64904;BMP280;51401;48.882;12.598;2024-03-23T07:25:01;64132.16;;;-137.53
64904;BMP280;51401;48.882;12.598;2024-03-23T07:27:26;64136.13;;;-137.53
64904;BMP280;51401;48.882;12.598;2024-03-23T07:29:52;64132.16;;;-137.53
64904;BMP280;51401;48.882;12.598;2024-03-23T07:32:17;64134.13;;;-137.53
64904;BMP280;51401;48.882;12.598;2024-03-23T07:34:42;64130.16;;;-137.53
64904;BMP280;51401;48.882;12.598;2024-03-23T07:37:09;64132.16;;;-137.53
64904;BMP280;51401;48.882;12.598;2024-03-23T07:39:35;64132.16;;;-137.53
64904;BMP280;51401;48.882;12.598;2024-03-23T07:42:00;64128.19;;;-137.53
64904;BMP280;51401;48.882;12.598;2024-03-23T07:44:25;64132.16;;;-137.53
64904;BMP280;51401;48.882;12.598;2024-03-23T07:46:50;64132.16;;;-137.53
64904;BMP280;51401;48.882;12.598;2024-03-23T07:49:16;64136.13;;;-137.53
64904;BMP280;51401;48.882;12.598;2024-03-23T07:51:42;64136.13;;;-137.53
64904;BMP280;51401;48.882;12.598;2024-03-23T07:54:07;64136.13;;;-137.53
64904;BMP280;51401;48.882;12.598;2024-03-23T07:56:32;64136.13;;;-137.53
64904;BMP280;51401;48.882;12.598;2024-03-23T07:58:57;64140.09;;;-137.53
64904;BMP280;51401;48.882;12.598;2024-03-23T08:01:23;64138.09;;;-137.53
64904;BMP280;51401;48.882;12.598;2024-03-23T08:03:49;64136.13;;;-137.53
64904;BMP280;51401;48.882;12.598;2024-03-23T08:06:19;64138.09;;;-137.53
64904;BMP280;51401;48.882;12.598;2024-03-23T08:08:45;64140.09;;;-137.53
64904;BMP280;51401;48.882;12.598;2024-03-23T08:11:11;64140.09;;;-137.53
64904;BMP280;51401;48.882;12.598;2024-03-23T08:13:39;64138.09;;;-137.53
64904;BMP280;51401;48.882;12.598;2024-03-23T08:16:05;64140.09;;;-137.53
64904;BMP280;51401;48.882;12.598;2024-03-23T08:18:31;64140.09;;;-137.53
64904;BMP280;51401;48.882;12.598;2024-03-23T08:21:00;64142.06;;;-137.53
64904;BMP280;51401;48.882;12.598;2024-03-23T08:23:27;64140.09;;;-137.53
64904;BMP280;51401;48.882;12.598;2024-03-23T08:25:57;64140.09;;;-137.53
64904;BMP280;51401;48.882;12.598;2024-03-23T08:28:23;64142.06;;;-137.53
64904;BMP280;51401;48.882;12.598;2024-03-23T08:30:48;64140.09;;;-137.53
64904;BMP280;51401;48.882;12.598;2024-03-23T08:33:14;64144.06;;;-137.53
64904;BMP280;51401;48.882;12.598;2024-03-23T08:35:40;64144.06;;;-137.53
64904;BMP280;51401;48.882;12.598;2024-03-23T08:38:05;64146.03;;;-137.53
64904;BMP280;51401;48.882;12.598;2024-03-23T08:40:31;64144.06;;;-137.53
64904;BMP280;51401;48.882;12.598;2024-03-23T08:42:56;64144.06;;;-137.53
64904;BMP280;51401;48.882;12.598;2024-03-23T08:45:22;64144.06;;;-137.53
64904;BMP280;51401;48.882;12.598;2024-03-23T08:47:47;64144.06;;;-137.53
64904;BMP280;51401;48.882;12.598;2024-03-23T08:50:12;64142.06;;;-137.53
64904;BMP280;51401;48.882;12.598;2024-03-23T08:52:38;64144.06;;;-137.53
64904;BMP280;51401;48.882;12.598;2024-03-23T08:55:03;64144.06;;;-137.53
64904;BMP280;51401;48.882;12.598;2024-03-23T08:57:29;64144.06;;;-137.53
64904;BMP280;51401;48.882;12.598;2024-03-23T08:59:55;64144.06;;;-137.53
64904;BMP280;51401;48.882;12.598;2024-03-23T09:02:20;64144.06;;;-137.53
64904;BMP280;51401;48.882;12.598;2024-03-23T09:04:45;64148.03;;;-137.53
64904;BMP280;51401;48.882;12.598;2024-03-23T09:07:11;64144.06;;;-137.53
64904;BMP280;51401;48.882;12.598;2024-03-23T09:09:38;64144.06;;;-137.53
64904;BMP280;51401;48.882;12.598;2024-03-23T09:12:04;64144.06;;;-137.53
64904;BMP280;51401;48.882;12.598;2024-03-23T09:14:29;64144.06;;;-137.53
64904;BMP280;51401;48.882;12.598;2024-03-23T09:16:55;64144.06;;;-137.53
64904;BMP280;51401;48.882;12.598;2024-03-23T09:19:20;64146.03;;;-137.53
64904;BMP280;51401;48.882;12.598;2024-03-23T09:21:45;64144.06;;;-137.53
64904;BMP280;51401;48.882;12.598;2024-03-23T09:24:11;64144.06;;;-137.53
64904;BMP280;51401;48.882;12.598;2024-03-23T09:26:36;64148.03;;;-137.53
64904;BMP280;51401;48.882;12.598;2024-03-23T09:29:02;64144.06;;;-137.53
64904;BMP280;51401;48.882;12.598;2024-03-23T09:31:28;64142.06;;;-137.53
64904;BMP280;51401;48.882;12.598;2024-03-23T09:33:53;64146.03;;;-137.53
64904;BMP280;51401;48.882;12.598;2024-03-23T09:36:19;64144.06;;;-137.53
64904;BMP280;51401;48.882;12.598;2024-03-23T09:38:44;64144.06;;;-137.53
64904;BMP280;51401;48.882;12.598;2024-03-23T09:41:10;64144.06;;;-137.53
64904;BMP280;51401;48.882;12.598;2024-03-23T09:43:35;64146.03;;;-137.53
64904;BMP280;51401;48.882;12.598;2024-03-23T09:46:04;64142.06;;;-137.53
64904;BMP280;51401;48.882;12.598;2024-03-23T09:48:32;64142.06;;;-137.53
64904;BMP280;51401;48.882;12.598;2024-03-23T09:50:58;64144.06;;;-137.53
64904;BMP280;51401;48.882;12.598;2024-03-23T09:53:23;64148.03;;;-137.53
64904;BMP280;51401;48.882;12.598;2024-03-23T09:55:48;64144.06;;;-137.53
64904;BMP280;51401;48.882;12.598;2024-03-23T09:58:18;64144.06;;;-137.53
64904;BMP280;51401;48.882;12.598;2024-03-23T10:00:44;64144.06;;;-137.53
64904;BMP280;51401;48.882;12.598;2024-03-23T10:03:09;64144.06;;;-137.53
64904;BMP280;51401;48.882;12.598;2024-03-23T10:05:36;64142.06;;;-137.53
64904;BMP280;51401;48.882;12.598;2024-03-23T10:10:43;64142.06;;;-137.53
64904;BMP280;51401;48.882;12.598;2024-03-23T10:13:09;64142.06;;;-137.53
64904;BMP280;51401;48.882;12.598;2024-03-23T10:15:36;64140.09;;;-137.53
64904;BMP280;51401;48.882;12.598;2024-03-23T10:18:18;64142.06;;;-137.53
64904;BMP280;51401;48.882;12.598;2024-03-23T10:20:50;64144.06;;;-137.53
64904;BMP280;51401;48.882;12.598;2024-03-23T10:23:17;64142.06;;;-137.53
64904;BMP280;51401;48.882;12.598;2024-03-23T10:25:43;64140.09;;;-137.53
64904;BMP280;51401;48.882;12.598;2024-03-23T10:28:08;64142.06;;;-137.53
64904;BMP280;51401;48.882;12.598;2024-03-23T10:30:34;64140.09;;;-137.53
64904;BMP280;51401;48.882;12.598;2024-03-23T10:33:10;64140.09;;;-137.53
64904;BMP280;51401;48.882;12.598;2024-03-23T10:35:37;64142.06;;;-137.53
64904;BMP280;51401;48.882;12.598;2024-03-23T10:38:06;64144.06;;;-137.53
64904;BMP280;51401;48.882;12.598;2024-03-23T10:40:35;64140.09;;;-137.53
64904;BMP280;51401;48.882;12.598;2024-03-23T10:43:02;64142.06;;;-137.53
64904;BMP280;51401;48.882;12.598;2024-03-23T10:45:28;64142.06;;;-137.53
64904;BMP280;51401;48.882;12.598;2024-03-23T10:47:53;64140.09;;;-137.53
64904;BMP280;51401;48.882;12.598;2024-03-23T10:50:19;64138.09;;;-137.53
64904;BMP280;51401;48.882;12.598;2024-03-23T10:52:46;64138.09;;;-137.53
64904;BMP280;51401;48.882;12.598;2024-03-23T10:55:14;64136.13;;;-137.53
64904;BMP280;51401;48.882;12.598;2024-03-23T10:57:44;64140.09;;;-137.53
64904;BMP280;51401;48.882;12.598;2024-03-23T11:00:10;64142.06;;;-137.53
64904;BMP280;51401;48.882;12.598;2024-03-23T11:02:36;64142.06;;;-137.53
64904;BMP280;51401;48.882;12.598;2024-03-23T11:05:29;64146.03;;;-137.53
64904;BMP280;51401;48.882;12.598;2024-03-23T11:07:55;64142.06;;;-137.53
64904;BMP280;51401;48.882;12.598;2024-03-23T11:10:31;64144.06;;;-137.53
64904;BMP280;51401;48.882;12.598;2024-03-23T11:12:58;64136.13;;;-137.53
64904;BMP280;51401;48.882;12.598;2024-03-23T11:15:24;64140.09;;;-137.53
64904;BMP280;51401;48.882;12.598;2024-03-23T11:18:03;64142.06;;;-137.53
64904;BMP280;51401;48.882;12.598;2024-03-23T11:20:32;64140.09;;;-137.53
64904;BMP280;51401;48.882;12.598;2024-03-23T11:22:58;64138.09;;;-137.53
64904;BMP280;51401;48.882;12.598;2024-03-23T11:25:25;64140.09;;;-137.53
64904;BMP280;51401;48.882;12.598;2024-03-23T11:27:52;64136.13;;;-137.53
64904;BMP280;51401;48.882;12.598;2024-03-23T11:30:22;64140.09;;;-137.53
64904;BMP280;51401;48.882;12.598;2024-03-23T11:32:49;64136.13;;;-137.53
64904;BMP280;51401;48.882;12.598;2024-03-23T11:35:31;64140.09;;;-137.53
64904;BMP280;51401;48.882;12.598;2024-03-23T11:38:07;64140.09;;;-137.53
64904;BMP280;51401;48.882;12.598;2024-03-23T11:40:34;64138.09;;;-137.53
64904;BMP280;51401;48.882;12.598;2024-03-23T11:43:07;64140.09;;;-137.53
64904;BMP280;51401;48.882;12.598;2024-03-23T11:45:37;64140.09;;;-137.53
64904;BMP280;51401;48.882;12.598;2024-03-23T11:48:07;64140.09;;;-137.53
64904;BMP280;51401;48.882;12.598;2024-03-23T11:50:33;64142.06;;;-137.53
64904;BMP280;51401;48.882;12.598;2024-03-23T11:53:11;64142.06;;;-137.53
64904;BMP280;51401;48.882;12.598;2024-03-23T11:55:51;64140.09;;;-137.53
64904;BMP280;51401;48.882;12.598;2024-03-23T11:58:21;64140.09;;;-137.53
64904;BMP280;51401;48.882;12.598;2024-03-23T12:00:57;64140.09;;;-137.53
64904;BMP280;51401;48.882;12.598;2024-03-23T12:03:23;64140.09;;;-137.53
64904;BMP280;51401;48.882;12.598;2024-03-23T12:05:53;64142.06;;;-137.53
64904;BMP280;51401;48.882;12.598;2024-03-23T12:08:19;64144.06;;;-137.53
64904;BMP280;51401;48.882;12.598;2024-03-23T12:10:53;64138.09;;;-137.53
64904;BMP280;51401;48.882;12.598;2024-03-23T12:13:22;64140.09;;;-137.53
64904;BMP280;51401;48.882;12.598;2024-03-23T12:15:50;64140.09;;;-137.53
64904;BMP280;51401;48.882;12.598;2024-03-23T12:18:16;64142.06;;;-137.53
64904;BMP280;51401;48.882;12.598;2024-03-23T12:20:42;64140.09;;;-137.53
64904;BMP280;51401;48.882;12.598;2024-03-23T12:23:09;64140.09;;;-137.53
64904;BMP280;51401;48.882;12.598;2024-03-23T12:25:35;64136.13;;;-137.53
64904;BMP280;51401;48.882;12.598;2024-03-23T12:28:01;64140.09;;;-137.53
64904;BMP280;51401;48.882;12.598;2024-03-23T12:30:26;64140.09;;;-137.53
64904;BMP280;51401;48.882;12.598;2024-03-23T12:32:51;64140.09;;;-137.53
64904;BMP280;51401;48.882;12.598;2024-03-23T12:35:20;64140.09;;;-137.53
64904;BMP280;51401;48.882;12.598;2024-03-23T12:37:45;64142.06;;;-137.53
64904;BMP280;51401;48.882;12.598;2024-03-23T12:40:10;64142.06;;;-137.53
64904;BMP280;51401;48.882;12.598;2024-03-23T12:42:36;64140.09;;;-137.53
64904;BMP280;51401;48.882;12.598;2024-03-23T12:45:01;64142.06;;;-137.53
64904;BMP280;51401;48.882;12.598;2024-03-23T12:47:27;64140.09;;;-137.53
64904;BMP280;51401;48.882;12.598;2024-03-23T12:49:53;64140.09;;;-137.53
64904;BMP280;51401;48.882;12.598;2024-03-23T12:52:18;64140.09;;;-137.53
64904;BMP280;51401;48.882;12.598;2024-03-23T12:54:46;64146.03;;;-137.53
64904;BMP280;51401;48.882;12.598;2024-03-23T12:57:11;64142.06;;;-137.53
64904;BMP280;51401;48.882;12.598;2024-03-23T12:59:37;64142.06;;;-137.53
64904;BMP280;51401;48.882;12.598;2024-03-23T13:02:02;64136.13;;;-137.53
64904;BMP280;51401;48.882;12.598;2024-03-23T13:04:27;64144.06;;;-137.53
64904;BMP280;51401;48.882;12.598;2024-03-23T13:06:53;64140.09;;;-137.53
64904;BMP280;51401;48.882;12.598;2024-03-23T13:09:18;64140.09;;;-137.53
64904;BMP280;51401;48.882;12.598;2024-03-23T13:11:43;64144.06;;;-137.53
64904;BMP280;51401;48.882;12.598;2024-03-23T13:14:09;64142.06;;;-137.53
64904;BMP280;51401;48.882;12.598;2024-03-23T13:16:34;64144.06;;;-137.53
64904;BMP280;51401;48.882;12.598;2024-03-23T13:18:59;64140.09;;;-137.53
64904;BMP280;51401;48.882;12.598;2024-03-23T13:21:26;64144.06;;;-137.53
64904;BMP280;51401;48.882;12.598;2024-03-23T13:23:51;64148.03;;;-137.53
64904;BMP280;51401;48.882;12.598;2024-03-23T13:26:16;64144.06;;;-137.53
64904;BMP280;51401;48.882;12.598;2024-03-23T13:28:42;64140.09;;;-137.53
64904;BMP280;51401;48.882;12.598;2024-03-23T13:31:07;64144.06;;;-137.53
64904;BMP280;51401;48.882;12.598;2024-03-23T13:33:33;64142.06;;;-137.53
64904;BMP280;51401;48.882;12.598;2024-03-23T13:35:58;64144.06;;;-137.53
64904;BMP280;51401;48.882;12.598;2024-03-23T13:38:24;64146.03;;;-137.53
64904;BMP280;51401;48.882;12.598;2024-03-23T13:40:57;64144.06;;;-137.53
64904;BMP280;51401;48.882;12.598;2024-03-23T13:43:23;64140.09;;;-137.53
64904;BMP280;51401;48.882;12.598;2024-03-23T13:45:56;64142.06;;;-137.53
64904;BMP280;51401;48.882;12.598;2024-03-23T13:48:26;64144.06;;;-137.53
64904;BMP280;51401;48.882;12.598;2024-03-23T13:51:02;64144.06;;;-137.53
64904;BMP280;51401;48.882;12.598;2024-03-23T13:53:27;64144.06;;;-137.53
64904;BMP280;51401;48.882;12.598;2024-03-23T13:55:52;64142.06;;;-137.53
64904;BMP280;51401;48.882;12.598;2024-03-23T13:58:18;64144.06;;;-137.53
64904;BMP280;51401;48.882;12.598;2024-03-23T14:00:44;64148.03;;;-137.53
64904;BMP280;51401;48.882;12.598;2024-03-23T14:03:13;64144.06;;;-137.53
64904;BMP280;51401;48.882;12.598;2024-03-23T14:05:39;64144.06;;;-137.53
64904;BMP280;51401;48.882;12.598;2024-03-23T14:08:08;64144.06;;;-137.53
64904;BMP280;51401;48.882;12.598;2024-03-23T14:10:34;64146.03;;;-137.53
64904;BMP280;51401;48.882;12.598;2024-03-23T14:13:01;64144.06;;;-137.53
64904;BMP280;51401;48.882;12.598;2024-03-23T14:15:27;64144.06;;;-137.53
64904;BMP280;51401;48.882;12.598;2024-03-23T14:17:52;64144.06;;;-137.53
64904;BMP280;51401;48.882;12.598;2024-03-23T14:20:17;64140.09;;;-137.53
64904;BMP280;51401;48.882;12.598;2024-03-23T14:22:43;64144.06;;;-137.53
64904;BMP280;51401;48.882;12.598;2024-03-23T14:25:09;64146.03;;;-137.53